Terminal Aerodrome Forecast
Issued by NWS

Home | Current Version | Previous Version | Text Only | Print | Product List | Glossary On
Versions: 1 2 3 4 5 6 7 8 9 10 11 12 13 14 15 16 17 18 19
772
FTUS43 KAPX 301302 AAA
TAFMBL
TAF AMD
KMBL 301302Z 3013/0112 07012G18KT P6SM -RA BKN009 OVC015
      TEMPO 3013/3017 BKN011 OVC015
     FM302200 07008KT 2SM SHRA BR OVC009
     FM010600 11006KT 3SM SHRA BR OVC008
     FM010800 11006KT 2SM SHRA BR OVC008 WS020/15040KT
     FM011000 13008KT 5SM -SHRA BR OVC008 WS020/15040KT=

USA.gov is the U.S. government's official web portal to all federal, state and local government web resources and services.